createdAt,value
2022-11-23T00:02:28.323Z,21.42
2022-11-23T00:05:32.557Z,20.20
2022-11-23T00:08:35.700Z,24.38
2022-11-23T00:11:38.796Z,15.88
2022-11-23T00:14:41.890Z,30.90
2022-11-23T00:17:47.640Z,29.65
2022-11-23T00:20:50.854Z,26.70
2022-11-23T00:23:53.960Z,17.35
2022-11-23T00:26:57.095Z,22.25
2022-11-23T00:30:00.225Z,21.10
2022-11-23T00:33:03.348Z,17.15
2022-11-23T00:36:14.073Z,24.17
2022-11-23T00:39:17.200Z,16.42
2022-11-23T00:42:20.247Z,27.13
2022-11-23T00:45:23.347Z,28.55
2022-11-23T00:48:26.505Z,15.13
2022-11-23T00:51:34.752Z,16.55
2022-11-23T00:54:37.967Z,14.27
2022-11-23T00:57:41.363Z,9.05
2022-11-23T01:00:45.166Z,13.32
2022-11-23T01:03:50.885Z,15.75
2022-11-23T01:07:00.271Z,13.80
2022-11-23T01:10:03.461Z,15.30
2022-11-23T01:13:06.583Z,8.75
2022-11-23T01:16:20.860Z,12.20
2022-11-23T01:19:27.036Z,7.82
2022-11-23T01:22:30.120Z,12.95
2022-11-23T01:25:33.239Z,11.77
2022-11-23T01:28:37.172Z,9.43
2022-11-23T01:31:46.075Z,11.77
2022-11-23T01:34:52.876Z,11.18
2022-11-23T01:37:56.071Z,9.88
2022-11-23T01:40:59.165Z,12.35
2022-11-23T01:44:21.795Z,9.90
2022-11-23T01:47:29.539Z,8.32
2022-11-23T01:50:32.781Z,12.57
2022-11-23T01:53:37.108Z,7.05
2022-11-23T01:56:51.880Z,11.57
2022-11-23T02:03:01.319Z,9.13
2022-11-23T02:06:10.529Z,10.02
2022-11-23T02:09:19.411Z,10.10
2022-11-23T02:12:22.599Z,9.15
2022-11-23T02:15:25.700Z,11.40
2022-11-23T02:18:31.974Z,15.20
2022-11-23T02:21:35.210Z,14.43
2022-11-23T02:24:46.108Z,14.30
2022-11-23T02:27:49.811Z,16.63
2022-11-23T02:30:56.518Z,13.95
2022-11-23T02:34:00.172Z,14.40
2022-11-23T02:37:03.954Z,16.77
2022-11-23T02:40:25.972Z,12.85
2022-11-23T02:43:29.149Z,13.73
2022-11-23T02:46:32.370Z,16.25
2022-11-23T02:49:35.974Z,15.05
2022-11-23T02:52:39.163Z,17.05
2022-11-23T02:55:42.359Z,29.33
2022-11-23T02:58:45.524Z,30.95
2022-11-23T03:01:49.212Z,23.92
2022-11-23T03:04:52.400Z,25.70
2022-11-23T03:07:56.442Z,22.70
2022-11-23T03:11:02.725Z,32.03
2022-11-23T03:14:07.209Z,31.25
2022-11-23T03:17:18.854Z,31.48
2022-11-23T03:20:22.457Z,27.83
2022-11-23T03:23:27.051Z,26.10
2022-11-23T03:26:30.498Z,29.90
2022-11-23T03:29:43.034Z,26.40
2022-11-23T03:32:51.845Z,35.88
2022-11-23T03:35:57.017Z,33.17
2022-11-23T03:39:04.864Z,27.98
2022-11-23T03:42:30.939Z,30.10
2022-11-23T03:45:34.137Z,21.95
2022-11-23T03:48:37.656Z,30.17
2022-11-23T03:51:40.756Z,27.10
2022-11-23T03:54:44.362Z,24.58
2022-11-23T03:57:49.903Z,29.25
2022-11-23T04:00:53.210Z,22.55
2022-11-23T04:03:56.546Z,23.10
2022-11-23T04:07:22.647Z,15.20
2022-11-23T04:10:30.188Z,20.35
2022-11-23T04:13:51.956Z,15.95
2022-11-23T04:16:55.694Z,17.65
2022-11-23T04:19:58.801Z,16.20
2022-11-23T04:23:02.105Z,23.25
2022-11-23T04:26:06.688Z,27.02
2022-11-23T04:29:10.631Z,29.08
2022-11-23T04:32:17.461Z,31.63
2022-11-23T04:35:22.181Z,36.05
2022-11-23T04:38:27.268Z,28.70
2022-11-23T04:41:30.807Z,37.95
2022-11-23T04:44:34.347Z,29.42
2022-11-23T04:47:40.770Z,36.58
2022-11-23T04:50:50.858Z,33.30
2022-11-23T04:54:03.362Z,33.78
2022-11-23T04:57:13.809Z,38.75
2022-11-23T05:00:18.937Z,31.52
2022-11-23T05:03:23.619Z,30.83
2022-11-23T05:06:26.772Z,29.83
2022-11-23T05:09:31.372Z,29.65
2022-11-23T05:12:39.870Z,30.08
2022-11-23T05:15:44.578Z,32.33
2022-11-23T05:18:51.868Z,30.58
2022-11-23T05:21:55.132Z,23.45
2022-11-23T05:25:00.163Z,29.00
2022-11-23T05:28:23.355Z,29.02
2022-11-23T05:31:29.091Z,27.75
2022-11-23T05:34:32.720Z,29.50
2022-11-23T05:37:38.675Z,27.10
2022-11-23T05:40:47.075Z,26.13
2022-11-23T05:43:51.766Z,28.35
2022-11-23T05:46:59.658Z,26.30
2022-11-23T05:50:07.061Z,30.38
2022-11-23T05:53:11.632Z,33.15
2022-11-23T05:56:15.092Z,27.15
2022-11-23T05:59:32.092Z,30.15
2022-11-23T06:02:41.157Z,22.77
2022-11-23T06:05:48.433Z,25.17
2022-11-23T06:08:54.633Z,23.80
2022-11-23T06:11:57.882Z,25.27
2022-11-23T06:15:01.138Z,26.27
2022-11-23T06:18:06.220Z,25.58
2022-11-23T06:21:20.471Z,27.35
2022-11-23T06:24:24.947Z,26.77
2022-11-23T06:27:58.946Z,25.67
2022-11-23T06:31:07.809Z,26.60
2022-11-23T06:34:11.335Z,22.35
2022-11-23T06:37:14.597Z,13.18
2022-11-23T06:40:19.525Z,11.50
2022-11-23T06:43:22.820Z,10.27
2022-11-23T06:46:26.910Z,9.25
2022-11-23T06:49:30.321Z,8.70
2022-11-23T06:52:48.415Z,7.25
2022-11-23T06:55:53.603Z,14.35
2022-11-23T06:58:57.462Z,6.70
2022-11-23T07:02:03.029Z,5.15
2022-11-23T07:05:10.780Z,17.95
2022-11-23T07:08:14.808Z,22.15
2022-11-23T07:11:18.661Z,10.98
2022-11-23T07:14:21.727Z,6.32
2022-11-23T07:17:26.845Z,3.60
2022-11-23T07:20:29.938Z,4.68
2022-11-23T07:23:33.059Z,3.88
2022-11-23T07:26:36.631Z,4.45
2022-11-23T07:29:40.616Z,4.72
2022-11-23T07:32:43.761Z,4.75
2022-11-23T07:35:47.082Z,5.55
2022-11-23T07:38:50.579Z,7.88
2022-11-23T07:42:17.411Z,8.02
2022-11-23T07:45:19.606Z,4.63
2022-11-23T07:48:34.695Z,5.45
2022-11-23T07:51:39.459Z,4.40
2022-11-23T07:54:42.640Z,12.98
2022-11-23T07:57:45.936Z,6.18
2022-11-23T08:00:49.045Z,5.60
2022-11-23T08:03:52.111Z,5.78
2022-11-23T08:06:55.868Z,8.82
2022-11-23T08:09:58.953Z,10.05
2022-11-23T08:13:05.523Z,9.98
2022-11-23T08:16:20.646Z,10.85
2022-11-23T08:19:24.092Z,11.93
2022-11-23T08:22:27.859Z,11.27
2022-11-23T08:25:31.167Z,14.43
2022-11-23T08:28:34.884Z,29.73
2022-11-23T08:31:38.136Z,23.58
2022-11-23T08:34:47.498Z,16.40
2022-11-23T08:37:53.919Z,16.05
2022-11-23T08:41:01.912Z,14.57
2022-11-23T08:44:05.872Z,35.15
2022-11-23T08:47:09.729Z,33.50
2022-11-23T08:50:12.904Z,35.63
2022-11-23T08:53:16.204Z,24.80
2022-11-23T08:56:19.989Z,21.92
2022-11-23T08:59:48.320Z,18.48
2022-11-23T09:02:51.441Z,17.00
2022-11-23T09:05:55.302Z,16.25
2022-11-23T09:08:58.733Z,18.05
2022-11-23T09:12:02.241Z,21.02
2022-11-23T09:15:05.735Z,21.60
2022-11-23T09:18:08.875Z,19.35
2022-11-23T09:21:12.028Z,18.25
2022-11-23T09:24:40.299Z,14.70
2022-11-23T09:27:43.725Z,15.48
2022-11-23T09:30:49.714Z,14.45
2022-11-23T09:33:55.936Z,14.57
2022-11-23T09:36:59.182Z,15.30
2022-11-23T09:40:02.576Z,20.33
2022-11-23T09:43:26.904Z,15.63
2022-11-23T09:46:50.132Z,18.65
2022-11-23T09:50:08.522Z,12.77
2022-11-23T09:53:17.117Z,15.25
2022-11-23T09:56:24.409Z,17.77
2022-11-23T09:59:42.708Z,26.90
2022-11-23T10:02:45.877Z,16.20
2022-11-23T10:06:03.615Z,17.70
2022-11-23T10:09:57.764Z,19.52
2022-11-23T10:13:28.036Z,27.60
2022-11-23T10:16:49.253Z,30.33
2022-11-23T10:20:17.969Z,36.97
2022-11-23T10:23:58.446Z,35.70
2022-11-23T10:27:03.524Z,36.63
2022-11-23T10:30:16.136Z,38.65
2022-11-23T10:33:53.890Z,36.33
2022-11-23T10:37:00.336Z,39.10
2022-11-23T10:40:03.423Z,33.00
2022-11-23T10:43:16.756Z,28.50
2022-11-23T10:46:43.974Z,29.77
2022-11-23T10:50:02.685Z,29.83
2022-11-23T10:53:20.377Z,27.23
2022-11-23T10:56:24.246Z,29.52
2022-11-23T10:59:29.372Z,32.17
2022-11-23T11:02:44.158Z,31.23
2022-11-23T11:09:21.879Z,36.08
2022-11-23T11:12:25.888Z,31.27
2022-11-23T11:15:29.641Z,23.80
2022-11-23T11:18:36.301Z,27.45
2022-11-23T11:21:43.920Z,23.77
2022-11-23T11:24:48.192Z,30.67
2022-11-23T11:27:56.660Z,31.23
2022-11-23T11:34:15.096Z,32.90
2022-11-23T11:37:56.598Z,37.58
2022-11-23T11:41:03.543Z,36.50
2022-11-23T11:44:18.895Z,40.90
2022-11-23T11:47:44.231Z,42.35
2022-11-23T11:51:01.478Z,39.30
2022-11-23T11:54:18.296Z,36.08
2022-11-23T11:57:24.831Z,38.70
2022-11-23T12:00:29.878Z,39.25
2022-11-23T12:03:56.217Z,45.05
2022-11-23T12:07:24.978Z,45.75
2022-11-23T12:10:41.489Z,38.00
2022-11-23T12:13:47.513Z,44.78
2022-11-23T12:17:32.856Z,48.03
2022-11-23T12:21:04.433Z,46.85
2022-11-23T12:24:33.693Z,50.17
2022-11-23T12:27:54.574Z,50.10
2022-11-23T12:31:09.624Z,53.08
2022-11-23T12:34:30.564Z,44.95
2022-11-23T12:38:03.784Z,43.92
2022-11-23T12:41:16.277Z,45.67
2022-11-23T12:44:49.968Z,45.95
2022-11-23T12:47:59.159Z,43.65
2022-11-23T12:51:28.207Z,50.30
2022-11-23T12:55:09.585Z,39.53
2022-11-23T12:58:23.923Z,37.88
2022-11-23T13:01:37.854Z,38.28
2022-11-23T13:04:59.217Z,42.20
2022-11-23T13:08:17.614Z,32.70
2022-11-23T13:11:42.512Z,39.13
2022-11-23T13:15:19.054Z,36.90
2022-11-23T13:18:25.373Z,34.17
2022-11-23T13:21:46.662Z,36.58
2022-11-23T13:25:21.433Z,35.80
2022-11-23T13:28:31.085Z,36.30
2022-11-23T13:31:36.564Z,38.25
2022-11-23T13:34:48.240Z,36.42
2022-11-23T13:37:57.171Z,38.38
2022-11-23T13:41:00.485Z,35.08
2022-11-23T13:44:26.442Z,32.60
2022-11-23T13:47:29.656Z,30.85
2022-11-23T13:50:36.431Z,26.13
2022-11-23T13:53:45.488Z,26.13
2022-11-23T13:57:08.450Z,24.80
2022-11-23T14:00:48.995Z,24.48
2022-11-23T14:04:07.002Z,29.88
2022-11-23T14:07:28.783Z,26.48
2022-11-23T14:10:35.416Z,25.52
2022-11-23T14:13:46.473Z,29.35
2022-11-23T14:17:28.992Z,27.52
2022-11-23T14:20:42.681Z,24.90
2022-11-23T14:24:22.773Z,26.95
2022-11-23T14:28:19.498Z,25.95
2022-11-23T14:35:00.885Z,23.42
2022-11-23T14:38:40.737Z,28.85
2022-11-23T14:41:44.680Z,24.02
2022-11-23T14:44:49.068Z,27.15
2022-11-23T14:47:52.257Z,26.70
2022-11-23T14:51:01.851Z,28.33
2022-11-23T14:54:11.926Z,30.30
2022-11-23T14:57:15.495Z,26.25
2022-11-23T15:00:33.584Z,30.05
2022-11-23T15:03:52.135Z,25.95
2022-11-23T15:07:00.659Z,29.42
2022-11-23T15:13:31.333Z,29.27
2022-11-23T15:16:43.032Z,25.98
2022-11-23T15:19:55.576Z,24.75
2022-11-23T15:22:59.249Z,24.33
2022-11-23T15:26:07.158Z,20.27
2022-11-23T15:29:29.905Z,20.63
2022-11-23T15:32:34.931Z,22.05
2022-11-23T15:35:40.517Z,18.73
2022-11-23T15:38:45.151Z,21.98
2022-11-23T15:41:48.499Z,17.83
2022-11-23T15:44:53.248Z,17.85
2022-11-23T15:48:01.584Z,21.27
2022-11-23T15:51:07.132Z,18.70
2022-11-23T15:54:23.557Z,21.60
2022-11-23T15:57:28.875Z,18.63
2022-11-23T16:00:32.299Z,19.08
2022-11-23T16:03:52.974Z,19.45
2022-11-23T16:10:19.279Z,14.40
2022-11-23T16:13:39.989Z,19.73
2022-11-23T16:16:46.180Z,17.60
2022-11-23T16:20:00.747Z,19.65
2022-11-23T16:23:04.046Z,25.10
2022-11-23T16:26:07.580Z,20.85
2022-11-23T16:29:25.088Z,22.88
2022-11-23T16:32:30.858Z,17.90
2022-11-23T16:35:34.028Z,19.98
2022-11-23T16:38:37.076Z,23.13
2022-11-23T16:41:40.307Z,18.70
2022-11-23T16:44:44.247Z,19.35
2022-11-23T16:48:01.542Z,19.30
2022-11-23T16:51:06.388Z,20.30
2022-11-23T16:54:14.692Z,19.60
2022-11-23T16:57:21.586Z,18.48
2022-11-23T17:00:25.601Z,19.55
2022-11-23T17:03:28.896Z,19.15
2022-11-23T17:06:32.195Z,16.42
2022-11-23T17:09:35.563Z,19.90
2022-11-23T17:12:39.850Z,19.85
2022-11-23T17:15:42.926Z,18.48
2022-11-23T17:18:47.634Z,16.15
2022-11-23T17:21:50.725Z,15.80
2022-11-23T17:24:55.437Z,17.33
2022-11-23T17:28:01.032Z,17.75
2022-11-23T17:31:04.443Z,20.50
2022-11-23T17:34:07.531Z,21.55
2022-11-23T17:37:18.699Z,18.63
2022-11-23T17:40:23.211Z,17.30
2022-11-23T17:43:26.341Z,16.63
2022-11-23T17:46:31.871Z,18.13
2022-11-23T17:49:35.270Z,16.02
2022-11-23T17:52:41.219Z,15.63
2022-11-23T17:55:44.371Z,17.38
2022-11-23T17:58:47.958Z,13.98
2022-11-23T18:01:52.356Z,14.27
2022-11-23T18:04:56.754Z,15.80
2022-11-23T18:07:59.956Z,11.57
2022-11-23T18:11:03.214Z,13.40
2022-11-23T18:14:06.405Z,12.68
2022-11-23T18:17:10.864Z,14.70
2022-11-23T18:20:14.307Z,15.75
2022-11-23T18:23:17.402Z,14.65
2022-11-23T18:26:26.247Z,14.90
2022-11-23T18:29:29.418Z,15.93
2022-11-23T18:32:32.551Z,13.55
2022-11-23T18:35:35.679Z,14.30
2022-11-23T18:38:38.888Z,14.65
2022-11-23T18:41:42.048Z,15.55
2022-11-23T18:44:45.246Z,12.25
2022-11-23T18:47:48.295Z,13.30
2022-11-23T18:50:51.962Z,11.50
2022-11-23T18:53:56.262Z,9.13
2022-11-23T18:56:59.479Z,9.80
2022-11-23T19:00:02.899Z,18.88
2022-11-23T19:03:06.625Z,43.85
2022-11-23T19:06:14.343Z,48.67
2022-11-23T19:09:17.596Z,46.67
2022-11-23T19:12:20.678Z,57.92
2022-11-23T19:15:23.815Z,66.60
2022-11-23T19:18:26.922Z,62.15
2022-11-23T19:21:32.129Z,39.72
2022-11-23T19:24:35.178Z,68.60
2022-11-23T19:27:38.358Z,55.78
2022-11-23T19:30:41.510Z,53.15
2022-11-23T19:33:47.410Z,59.45
2022-11-23T19:36:50.502Z,46.80
2022-11-23T19:39:53.648Z,58.65
2022-11-23T19:42:56.804Z,62.67
2022-11-23T19:46:02.939Z,60.95
2022-11-23T19:49:06.122Z,44.70
2022-11-23T19:52:09.288Z,41.85
2022-11-23T19:55:12.380Z,35.72
2022-11-23T19:58:16.283Z,23.50
2022-11-23T20:01:21.414Z,16.92
2022-11-23T20:04:24.556Z,12.82
2022-11-23T20:07:27.791Z,22.35
2022-11-23T20:10:30.959Z,31.88
2022-11-23T20:13:36.168Z,35.20
2022-11-23T20:16:39.497Z,48.65
2022-11-23T20:19:42.741Z,67.35
2022-11-23T20:22:45.798Z,61.85
2022-11-23T20:25:48.876Z,62.00
2022-11-23T20:28:53.839Z,69.57
2022-11-23T20:31:56.922Z,57.22
2022-11-23T20:35:00.387Z,69.38
2022-11-23T20:38:04.148Z,66.70
2022-11-23T20:41:21.743Z,71.65
2022-11-23T20:44:30.745Z,79.65
2022-11-23T20:47:36.796Z,65.30
2022-11-23T20:50:40.078Z,60.08
2022-11-23T20:53:43.243Z,73.07
2022-11-23T20:56:46.348Z,82.32
2022-11-23T20:59:49.905Z,73.97
2022-11-23T21:02:54.625Z,67.90
2022-11-23T21:05:58.488Z,68.72
2022-11-23T21:09:01.551Z,65.88
2022-11-23T21:12:23.327Z,65.07
2022-11-23T21:15:26.478Z,74.30
2022-11-23T21:18:29.561Z,78.95
2022-11-23T21:21:32.756Z,69.85
2022-11-23T21:24:36.777Z,61.60
2022-11-23T21:27:40.145Z,71.43
2022-11-23T21:30:43.333Z,74.80
2022-11-23T21:33:49.513Z,74.18
2022-11-23T21:36:58.313Z,78.82
2022-11-23T21:40:01.541Z,59.45
2022-11-23T21:43:04.861Z,59.67
2022-11-23T21:46:10.868Z,49.60
2022-11-23T21:49:14.112Z,36.55
2022-11-23T21:52:17.184Z,26.48
2022-11-23T21:55:20.441Z,22.80
2022-11-23T21:58:26.414Z,22.90
2022-11-23T22:01:34.119Z,46.95
2022-11-23T22:04:38.463Z,49.47
2022-11-23T22:07:47.385Z,47.10
2022-11-23T22:10:58.282Z,51.65
2022-11-23T22:14:05.332Z,43.53
2022-11-23T22:17:08.423Z,38.47
2022-11-23T22:20:12.089Z,34.42
2022-11-23T22:23:15.328Z,23.27
2022-11-23T22:26:20.059Z,18.10
2022-11-23T22:29:23.163Z,11.30
2022-11-23T22:32:26.292Z,13.93
2022-11-23T22:35:29.312Z,16.48
2022-11-23T22:38:35.570Z,13.93
2022-11-23T22:41:39.181Z,10.32
2022-11-23T22:44:42.406Z,12.20
2022-11-23T22:47:45.535Z,14.45
2022-11-23T22:50:59.914Z,10.70
2022-11-23T22:57:06.365Z,4.57
2022-11-23T23:00:11.462Z,4.90
2022-11-23T23:03:14.710Z,5.20
2022-11-23T23:06:23.707Z,4.07
2022-11-23T23:09:26.827Z,5.00
2022-11-23T23:12:30.138Z,5.82
2022-11-23T23:15:33.298Z,7.35
2022-11-23T23:18:36.519Z,8.32
2022-11-23T23:21:39.565Z,9.90
2022-11-23T23:24:42.722Z,9.27
2022-11-23T23:27:45.800Z,7.80
2022-11-23T23:30:49.221Z,8.32
2022-11-23T23:33:54.241Z,7.07
2022-11-23T23:36:57.383Z,5.95
2022-11-23T23:40:00.417Z,5.20
2022-11-23T23:43:03.583Z,5.95
2022-11-23T23:46:09.373Z,5.05
2022-11-23T23:49:12.553Z,4.38
2022-11-23T23:52:15.721Z,4.13
2022-11-23T23:55:18.810Z,4.35
2022-11-23T23:58:21.871Z,4.13
